Time;durP1;ratioP1;P1;durP2;ratioP2;P2;SDS_P1;SDS_P2;PMS_P1;PMS_P2;Temp;Humidity;BMP_temperature;BMP_pressure;BME280_temperature;BME280_humidity;BME280_pressure;Samples;Min_cycle;Max_cycle;Signal;HPM_P1;HPM_P2
2023/04/09 00:16:51;812967.00;2.71;1403.75;103361.00;0.34;179.37;;;;;12.40;1.00;;;;;;2279070;61;1320;-89
2023/04/09 00:19:18;60789.00;0.20;105.84;0.00;0.00;0.62;;;;;12.50;1.00;;;;;;2277701;61;935;-90
2023/04/09 00:24:18;641899.00;2.14;1106.62;0.00;0.00;0.62;;;;;12.10;1.00;;;;;;2278597;61;1408;-87
2023/04/09 00:29:15;826256.00;2.75;1426.95;0.00;0.00;0.62;;;;;11.90;1.00;;;;;;2277993;61;1339;-91
2023/04/09 00:34:11;974432.00;3.25;1687.24;0.00;0.00;0.62;;;;;12.10;1.00;;;;;;1544558;40;3389;-91
2023/04/09 00:49:05;2407327.00;8.02;4497.01;210732.00;0.70;364.40;;;;;12.10;1.00;;;;;;2285231;55;3639;-88
2023/04/09 00:51:34;1224899.00;4.08;2135.30;171373.00;0.57;296.63;;;;;12.20;1.00;;;;;;2276507;61;1605;-89
2023/04/09 00:58:59;853488.00;2.84;1474.57;89775.00;0.30;155.92;;;;;12.10;1.00;;;;;;2278407;61;1383;-90
2023/04/09 01:01:26;672425.00;2.24;1159.45;91953.00;0.31;159.68;;;;;12.50;1.00;;;;;;2315404;40;3606;-89
2023/04/09 01:11:34;614559.00;2.05;1059.37;0.00;0.00;0.62;;;;;12.30;1.00;;;;;;2274575;61;1387;-90
2023/04/09 01:14:08;328141.00;1.09;566.29;0.00;0.00;0.62;;;;;12.40;1.00;;;;;;2272567;61;1600;-89
2023/04/09 01:19:16;713486.00;2.38;1230.63;0.00;0.00;0.62;;;;;12.10;1.00;;;;;;1791879;56;3594;-90
2023/04/09 01:24:28;405154.00;1.35;698.67;0.00;0.00;0.62;;;;;12.00;1.00;;;;;;2274684;61;1419;-87
2023/04/09 01:39:25;657122.00;2.19;1132.96;0.00;0.00;0.62;;;;;11.90;1.00;;;;;;2278527;61;1420;-88
2023/04/09 01:44:23;529208.00;1.76;912.13;0.00;0.00;0.62;;;;;11.90;1.00;;;;;;2278465;61;1351;-87
2023/04/09 01:46:52;940184.00;3.13;1626.81;79618.00;0.27;138.38;;;;;11.80;1.00;;;;;;2276674;61;1064;-89
2023/04/09 01:51:48;1522471.00;5.07;2685.47;149581.00;0.50;259.09;;;;;11.80;1.00;;;;;;2289705;55;3748;-88
2023/04/09 01:56:48;1030484.00;3.43;1786.54;94527.00;0.32;164.12;;;;;11.80;1.00;;;;;;2278303;61;1423;-89
2023/04/09 02:01:46;1524513.00;5.08;2689.33;73240.00;0.24;127.36;;;;;12.00;1.00;;;;;;2285689;56;3596;-87
2023/04/09 02:04:21;1058633.00;3.53;1836.60;94201.00;0.31;163.56;;;;;11.90;1.00;;;;;;2276470;61;1021;-89
2023/04/09 02:09:24;1364304.00;4.55;2390.28;87630.00;0.29;152.22;;;;;12.10;1.00;;;;;;2293971;40;3463;-90
2023/04/09 02:11:56;1131020.00;3.77;1965.99;87841.00;0.29;152.58;;;;;12.10;1.00;;;;;;2278353;55;3764;-90
2023/04/09 02:16:53;1781051.00;5.94;3184.02;152728.00;0.51;264.51;;;;;12.00;1.00;;;;;;2277548;61;1415;-90
2023/04/09 02:24:19;1874620.00;6.25;3369.98;51912.00;0.17;90.49;;;;;12.20;1.00;;;;;;2278455;61;1415;-88
2023/04/09 02:26:46;1145616.00;3.82;1992.20;161221.00;0.54;279.14;;;;;12.30;1.00;;;;;;2278612;55;3781;-89
2023/04/09 02:29:15;1435808.00;4.79;2522.90;118321.00;0.39;205.19;;;;;11.90;1.00;;;;;;2276601;61;1007;-87
2023/04/09 02:31:42;1418317.00;4.73;2490.34;120323.00;0.40;208.64;;;;;12.10;1.00;;;;;;2276474;61;1398;-89
2023/04/09 02:34:09;999277.00;3.33;1731.19;124475.00;0.41;215.80;;;;;12.10;1.00;;;;;;2280573;55;3772;-86
2023/04/09 02:44:05;559964.00;1.87;965.14;0.00;0.00;0.62;;;;;12.10;1.00;;;;;;2278768;61;1315;-89
2023/04/09 02:46:33;202190.00;0.67;349.69;0.00;0.00;0.62;;;;;12.40;1.00;;;;;;2276918;61;1349;-89
2023/04/09 02:49:00;383133.00;1.28;660.81;0.00;0.00;0.62;;;;;12.20;1.00;;;;;;2276335;61;1592;-90
2023/04/09 02:51:27;303378.00;1.01;523.73;0.00;0.00;0.62;;;;;12.10;1.00;;;;;;2276418;61;1400;-88
2023/04/09 02:53:54;136824.00;0.46;237.10;0.00;0.00;0.62;;;;;12.20;1.00;;;;;;2276466;61;1041;-89
2023/04/09 02:58:52;465515.00;1.55;802.47;0.00;0.00;0.62;;;;;12.20;1.00;;;;;;2277906;61;1285;-88
2023/04/09 03:01:19;423487.00;1.41;730.19;0.00;0.00;0.62;;;;;11.90;1.00;;;;;;2276205;61;1920;-89
2023/04/09 03:03:48;448340.00;1.49;772.93;40512.00;0.14;70.77;;;;;11.80;1.00;;;;;;2276788;61;1721;-89
2023/04/09 03:06:15;265499.00;0.88;458.60;0.00;0.00;0.62;;;;;12.00;1.00;;;;;;2299798;56;3723;-89
2023/04/09 03:08:42;227702.00;0.76;393.60;0.00;0.00;0.62;;;;;12.10;1.00;;;;;;2276827;61;980;-88
2023/04/09 03:11:09;210886.00;0.70;364.66;0.00;0.00;0.62;;;;;12.10;1.00;;;;;;2276777;61;1406;-87
2023/04/09 03:16:06;730055.00;2.43;1259.40;0.00;0.00;0.62;;;;;12.20;1.00;;;;;;2302281;41;3477;-88
2023/04/09 03:18:33;183924.00;0.61;318.25;0.00;0.00;0.62;;;;;11.90;1.00;;;;;;2276700;61;1579;-87
2023/04/09 03:21:05;319636.00;1.07;551.67;2360.00;0.01;4.71;;;;;11.80;1.00;;;;;;2276700;61;1998;-88
2023/04/09 03:23:33;120105.00;0.40;208.26;0.00;0.00;0.62;;;;;12.10;1.00;;;;;;2276820;61;1117;-87
2023/04/09 03:26:01;723742.00;2.41;1248.43;97067.00;0.32;168.51;;;;;11.90;1.00;;;;;;2276663;61;1122;-88
2023/04/09 03:28:28;324677.00;1.08;560.34;31971.00;0.11;55.99;;;;;11.80;1.00;;;;;;2276673;61;1038;-88
2023/04/09 03:30:55;1263719.00;4.21;2205.86;76240.00;0.25;132.54;;;;;11.80;1.00;;;;;;2276532;61;1671;-88
2023/04/09 03:33:22;1319374.00;4.40;2307.61;112750.00;0.38;195.57;;;;;11.70;1.00;;;;;;2276740;61;1080;-86
2023/04/09 03:35:50;1220504.00;4.07;2127.34;68313.00;0.23;118.85;;;;;11.80;1.00;;;;;;2276692;61;1133;-86
2023/04/09 03:38:18;663110.00;2.21;1143.32;130359.00;0.43;225.95;;;;;11.80;1.00;;;;;;2276778;61;1056;-87
2023/04/09 03:40:45;617727.00;2.06;1064.84;90905.00;0.30;157.87;;;;;11.80;1.00;;;;;;2276520;61;2008;-88
2023/04/09 03:43:12;563980.00;1.88;972.06;99028.00;0.33;171.89;;;;;11.80;1.00;;;;;;2276801;61;1609;-87
2023/04/09 03:45:39;465370.00;1.55;802.22;92088.00;0.31;159.91;;;;;11.60;1.00;;;;;;2276730;61;980;-89
2023/04/09 03:48:06;557824.00;1.86;961.45;96080.00;0.32;166.81;;;;;11.60;1.00;;;;;;2276472;61;1796;-88
2023/04/09 03:50:38;1225098.00;4.08;2135.66;75410.00;0.25;131.11;;;;;11.50;1.00;;;;;;2276705;61;2223;-88
2023/04/09 03:53:06;326891.00;1.09;564.14;0.00;0.00;0.62;;;;;11.60;1.00;;;;;;2276512;61;1478;-86
2023/04/09 03:55:34;171150.00;0.57;296.25;0.00;0.00;0.62;;;;;11.70;1.00;;;;;;2276672;61;1446;-88
2023/04/09 03:58:01;448628.00;1.50;773.42;0.00;0.00;0.62;;;;;11.80;1.00;;;;;;2277208;61;1029;-87
2023/04/09 04:00:28;265584.00;0.89;458.75;27615.00;0.09;48.45;;;;;11.80;1.00;;;;;;2277208;61;1923;-87
2023/04/09 04:02:55;145660.00;0.49;252.33;0.00;0.00;0.62;;;;;11.80;1.00;;;;;;2277292;61;1737;-88
2023/04/09 04:05:25;51937.00;0.17;90.54;0.00;0.00;0.62;;;;;11.80;1.00;;;;;;2277412;61;1081;-89
2023/04/09 04:07:52;167182.00;0.56;289.41;0.00;0.00;0.62;;;;;11.70;1.00;;;;;;2277364;61;984;-89
2023/04/09 04:10:19;203245.00;0.68;351.51;0.00;0.00;0.62;;;;;11.80;1.00;;;;;;2277149;61;1697;-89
2023/04/09 04:12:47;103221.00;0.34;179.13;0.00;0.00;0.62;;;;;11.80;1.00;;;;;;2277377;61;1787;-88
2023/04/09 04:15:14;171698.00;0.57;297.19;11072.00;0.04;19.81;;;;;11.80;1.00;;;;;;2277116;61;1695;-89
2023/04/09 04:17:41;259514.00;0.87;448.31;0.00;0.00;0.62;;;;;11.80;1.00;;;;;;2277348;61;1020;-88
2023/04/09 04:20:09;72198.00;0.24;125.56;0.00;0.00;0.62;;;;;11.80;1.00;;;;;;2277278;61;1098;-88
2023/04/09 04:22:36;740824.00;2.47;1278.11;66771.00;0.22;116.18;;;;;11.50;1.00;;;;;;2277208;61;2013;-87
2023/04/09 04:27:31;1505172.00;5.02;2652.86;148104.00;0.49;256.54;;;;;11.80;1.00;;;;;;2278852;61;1380;-88
2023/04/09 04:30:00;1363919.00;4.55;2389.57;140766.00;0.47;243.89;;;;;11.90;1.00;;;;;;2277200;61;1110;-87
2023/04/09 04:32:27;1565523.00;5.22;2767.03;202321.00;0.67;349.92;;;;;11.80;1.00;;;;;;2277062;61;1734;-87
2023/04/09 04:34:55;799712.00;2.67;1380.62;90375.00;0.30;156.96;;;;;11.70;1.00;;;;;;2277205;61;1036;-87
2023/04/09 04:37:22;554456.00;1.85;955.64;101730.00;0.34;176.56;;;;;11.80;1.00;;;;;;2277166;61;1316;-88
2023/04/09 04:39:48;324221.00;1.08;559.55;98344.00;0.33;170.71;;;;;11.70;1.00;;;;;;2277330;61;976;-88
2023/04/09 04:42:16;440525.00;1.47;759.49;97975.00;0.33;170.08;;;;;11.70;1.00;;;;;;2277112;61;2000;-89
2023/04/09 04:44:43;206630.00;0.69;357.34;0.00;0.00;0.62;;;;;11.60;1.00;;;;;;2277087;61;1610;-88
2023/04/09 04:47:11;92896.00;0.31;161.31;0.00;0.00;0.62;;;;;11.50;1.00;;;;;;2277344;61;1113;-88
2023/04/09 04:49:38;185993.00;0.62;321.81;0.00;0.00;0.62;;;;;11.70;1.00;;;;;;2277046;61;1103;-89
2023/04/09 04:52:06;161523.00;0.54;279.66;0.00;0.00;0.62;;;;;11.90;1.00;;;;;;2277179;61;1384;-90
2023/04/09 04:54:34;525755.00;1.75;906.18;0.00;0.00;0.62;;;;;11.60;1.00;;;;;;2277123;61;1671;-89
2023/04/09 04:59:37;682713.00;2.28;1177.27;0.00;0.00;0.62;;;;;11.50;1.00;;;;;;2278611;61;1443;-88
2023/04/09 05:02:04;180444.00;0.60;312.25;0.00;0.00;0.62;;;;;11.50;1.00;;;;;;2277113;61;1982;-89
2023/04/09 05:04:32;440031.00;1.47;758.64;26858.00;0.09;47.14;;;;;11.60;1.00;;;;;;2276918;61;1642;-89
2023/04/09 05:07:00;160247.00;0.53;277.46;0.00;0.00;0.62;;;;;11.50;1.00;;;;;;2277064;61;955;-88
2023/04/09 05:09:26;196138.00;0.65;339.28;0.00;0.00;0.62;;;;;11.80;1.00;;;;;;2276433;61;1175;-86
2023/04/09 05:11:53;146464.00;0.49;253.71;0.00;0.00;0.62;;;;;11.90;1.00;;;;;;2277106;61;1390;-89
2023/04/09 05:14:21;154036.00;0.51;266.76;0.00;0.00;0.62;;;;;11.90;1.00;;;;;;2277089;61;1073;-88
2023/04/09 05:16:49;217003.00;0.72;375.19;32759.00;0.11;57.36;;;;;11.80;1.00;;;;;;2276923;61;1629;-87
2023/04/09 05:19:16;944286.00;3.15;1634.04;33376.00;0.11;58.43;;;;;11.70;1.00;;;;;;2277138;61;920;-88
2023/04/09 05:21:45;1838869.00;6.13;3298.55;192523.00;0.64;333.05;;;;;11.80;1.00;;;;;;2277056;61;1910;-87
2023/04/09 05:24:12;1305720.00;4.35;2282.58;177497.00;0.59;307.18;;;;;11.80;1.00;;;;;;2277171;61;1014;-88
2023/04/09 05:26:39;1062412.00;3.54;1843.33;118771.00;0.40;205.96;;;;;11.80;1.00;;;;;;2276941;61;1001;-89
2023/04/09 05:29:06;487307.00;1.62;839.97;99008.00;0.33;171.86;;;;;11.70;1.00;;;;;;2276961;61;1610;-88
2023/04/09 05:31:33;241263.00;0.80;416.92;0.00;0.00;0.62;;;;;11.70;1.00;;;;;;2276894;61;1698;-89
2023/04/09 05:33:59;117183120.00;390.61;65181092.00;0.00;0.00;0.62;;;;;11.80;1.00;;;;;;2277038;61;1098;-88
2023/04/09 05:36:26;314954.00;1.05;543.62;85556.00;0.29;148.63;;;;;11.80;1.00;;;;;;2276992;61;1025;-89
2023/04/09 05:38:55;257549.00;0.86;444.93;0.00;0.00;0.62;;;;;12.00;1.00;;;;;;2276972;61;1525;-87
2023/04/09 05:41:22;350813.00;1.17;605.26;42168.00;0.14;73.64;;;;;12.60;1.00;;;;;;2276778;61;2018;-90
2023/04/09 05:43:49;136996.00;0.46;237.39;0.00;0.00;0.62;;;;;13.80;1.00;;;;;;2276838;61;1557;-89
2023/04/09 05:46:16;209713.00;0.70;362.64;0.00;0.00;0.62;;;;;15.10;1.00;;;;;;2276981;61;1571;-88
2023/04/09 05:48:43;88749.00;0.30;154.15;0.00;0.00;0.62;;;;;16.40;1.00;;;;;;2276897;61;1092;-88
2023/04/09 05:51:10;139638.00;0.47;241.95;0.00;0.00;0.62;;;;;16.60;1.00;;;;;;2277023;61;1403;-87
2023/04/09 05:53:37;282133.00;0.94;487.20;29665.00;0.10;52.00;;;;;17.30;1.00;;;;;;2276952;61;987;-88
2023/04/09 05:56:13;1704821.00;5.68;3034.79;210267.00;0.70;363.59;;;;;18.00;1.00;;;;;;2277014;61;982;-87
2023/04/09 05:58:40;630487.00;2.10;1086.89;145176.00;0.48;251.49;;;;;18.40;1.00;;;;;;2276575;61;1692;-89
2023/04/09 06:03:36;451642.00;1.51;778.61;0.00;0.00;0.62;;;;;19.00;1.00;;;;;;2278792;61;1411;-88
2023/04/09 06:06:03;127287.00;0.42;220.65;0.00;0.00;0.62;;;;;19.60;1.00;;;;;;2276952;61;1251;-89
2023/04/09 06:08:30;50274.00;0.17;87.66;0.00;0.00;0.62;;;;;20.20;1.00;;;;;;2276914;61;1616;-88
2023/04/09 06:10:58;249033.00;0.83;430.29;0.00;0.00;0.62;;;;;20.80;1.00;;;;;;2291575;56;3765;-88
2023/04/09 06:13:26;90660.00;0.30;157.45;0.00;0.00;0.62;;;;;21.50;1.00;;;;;;2276806;61;1012;-87
2023/04/09 06:15:53;317477.00;1.06;547.96;6528.00;0.02;11.93;;;;;22.00;1.00;;;;;;2276909;61;1042;-89
2023/04/09 06:18:20;229238.00;0.76;396.24;22508.00;0.08;39.61;;;;;21.50;1.00;;;;;;2276695;61;1725;-89
2023/04/09 06:23:17;1483447.00;4.94;2612.01;169751.00;0.57;293.84;;;;;22.20;1.00;;;;;;2278475;61;2152;-90
2023/04/09 06:25:44;65143.00;0.22;113.37;0.00;0.00;0.62;;;;;21.90;1.00;;;;;;2276402;61;962;-90
2023/04/09 06:28:11;105661.00;0.35;183.34;0.00;0.00;0.62;;;;;22.80;1.00;;;;;;2276829;61;1612;-91
2023/04/09 06:30:40;146756.00;0.49;254.22;0.00;0.00;0.62;;;;;22.90;1.00;;;;;;2279288;40;3611;-87
2023/04/09 06:33:07;182551.00;0.61;315.88;0.00;0.00;0.62;;;;;22.30;1.00;;;;;;2276734;61;1649;-89
2023/04/09 06:35:34;124574.00;0.42;215.97;0.00;0.00;0.62;;;;;22.30;1.00;;;;;;2276868;61;1033;-90
2023/04/09 06:38:01;33670.00;0.11;58.94;0.00;0.00;0.62;;;;;23.30;1.00;;;;;;2276704;61;906;-89
2023/04/09 06:40:28;100084.00;0.33;173.72;0.00;0.00;0.62;;;;;23.60;1.00;;;;;;2276526;61;1126;-89
2023/04/09 06:42:55;267937.00;0.89;462.80;0.00;0.00;0.62;;;;;22.90;1.00;;;;;;2276903;61;1998;-88
2023/04/09 06:45:22;92887.00;0.31;161.29;0.00;0.00;0.62;;;;;21.90;1.00;;;;;;2276858;61;1753;-89
2023/04/09 06:47:51;71311.00;0.24;124.03;0.00;0.00;0.62;;;;;21.60;1.00;;;;;;2276933;61;934;-88
2023/04/09 06:50:18;73457.00;0.24;127.73;0.00;0.00;0.62;;;;;22.00;1.00;;;;;;2276853;61;990;-89
2023/04/09 06:52:45;345756.00;1.15;596.57;26032.00;0.09;45.71;;;;;22.00;1.00;;;;;;2291832;56;3925;-88
2023/04/09 06:55:12;98874.00;0.33;171.63;0.00;0.00;0.62;;;;;22.70;1.00;;;;;;2276610;61;1520;-89
2023/04/09 06:57:40;124687.00;0.42;216.17;0.00;0.00;0.62;;;;;23.00;1.00;;;;;;2276861;61;1230;-89
2023/04/09 07:00:08;46425.00;0.15;81.00;0.00;0.00;0.62;;;;;23.10;1.00;;;;;;2276598;61;1556;-91
2023/04/09 07:05:05;480774.00;1.60;828.73;16118.00;0.05;28.55;;;;;21.70;1.00;;;;;;2277683;61;1407;-89
2023/04/09 07:07:32;401171.00;1.34;691.82;0.00;0.00;0.62;;;;;22.70;1.00;;;;;;2276786;61;1227;-88
2023/04/09 07:09:59;1040016.00;3.47;1803.48;87676.00;0.29;152.29;;;;;23.10;1.00;;;;;;2276645;61;1684;-89
2023/04/09 07:12:29;1496295.00;4.99;2636.15;197285.00;0.66;341.25;;;;;23.30;1.00;;;;;;2276626;61;1565;-87
2023/04/09 07:14:58;1044832.00;3.48;1812.04;81167.00;0.27;141.05;;;;;23.10;1.00;;;;;;2276731;61;1978;-89
2023/04/09 07:17:25;1433501.00;4.78;2518.60;147196.00;0.49;254.97;;;;;23.20;1.00;;;;;;2276573;61;1798;-88
2023/04/09 07:22:24;1182554.00;3.94;2058.71;186659.00;0.62;322.96;;;;;24.00;1.00;;;;;;2278271;61;1974;-90
2023/04/09 07:27:19;693356.00;2.31;1195.72;94006.00;0.31;163.22;;;;;22.70;1.00;;;;;;2278525;61;1351;-89
2023/04/09 07:29:45;430126.00;1.43;741.60;85371.00;0.28;148.31;;;;;23.60;1.00;;;;;;2283736;56;3769;-89
2023/04/09 07:32:13;448175.00;1.49;772.64;89573.00;0.30;155.57;;;;;22.70;1.00;;;;;;2276991;61;1423;-89
2023/04/09 07:34:40;243857.00;0.81;421.39;0.00;0.00;0.62;;;;;22.80;1.00;;;;;;2277439;61;954;-89
2023/04/09 07:37:07;65827.00;0.22;114.55;0.00;0.00;0.62;;;;;22.60;1.00;;;;;;2277495;61;992;-90
2023/04/09 07:42:06;277469.00;0.92;479.19;0.00;0.00;0.62;;;;;23.00;1.00;;;;;;2287146;40;3489;-88
2023/04/09 07:47:02;352412.00;1.17;608.01;0.00;0.00;0.62;;;;;19.60;1.00;;;;;;2281610;55;3644;-87
2023/04/09 07:49:29;92871.00;0.31;161.26;0.00;0.00;0.62;;;;;18.90;1.00;;;;;;2279024;55;3753;-88
2023/04/09 07:51:57;128048.00;0.43;221.96;0.00;0.00;0.62;;;;;19.50;1.00;;;;;;2277283;61;2125;-89
2023/04/09 07:59:26;1216223.00;4.05;2119.58;164261.00;0.55;284.38;;;;;19.00;1.00;;;;;;2279358;61;1925;-89
2023/04/09 08:01:53;1394864.00;4.65;2446.80;167726.00;0.56;290.35;;;;;19.20;1.00;;;;;;2277289;61;1915;-88
2023/04/09 08:06:50;774260.00;2.58;1336.27;94322.00;0.31;163.77;;;;;17.90;1.00;;;;;;2284833;55;3673;-90
2023/04/09 08:09:17;273851.00;0.91;472.97;91266.00;0.30;158.49;;;;;17.30;1.00;;;;;;2286000;55;3746;-88
2023/04/09 08:11:46;210636.00;0.70;364.23;90273.00;0.30;156.78;;;;;16.20;1.00;;;;;;2279015;55;3743;-89
2023/04/09 08:14:13;176509.00;0.59;305.48;0.00;0.00;0.62;;;;;15.90;1.00;;;;;;2277070;61;1770;-88
2023/04/09 08:16:43;184305.00;0.61;318.90;0.00;0.00;0.62;;;;;15.20;1.00;;;;;;2277277;61;1139;-88
2023/04/09 08:19:11;240757.00;0.80;416.05;46203.00;0.15;80.62;;;;;14.40;1.00;;;;;;2279207;55;3742;-88
2023/04/09 08:21:39;306836.00;1.02;529.67;0.00;0.00;0.62;;;;;14.00;1.00;;;;;;2277285;61;1356;-88
2023/04/09 08:24:06;466148.00;1.55;803.56;16121.00;0.05;28.55;;;;;13.80;1.00;;;;;;2289245;41;3657;-88
2023/04/09 08:26:33;173013.00;0.58;299.46;0.00;0.00;0.62;;;;;13.20;1.00;;;;;;2277412;61;1050;-90
2023/04/09 08:29:00;91709.00;0.31;159.26;0.00;0.00;0.62;;;;;13.00;1.00;;;;;;2277143;61;1740;-89
2023/04/09 08:31:27;229765.00;0.77;397.14;9451.00;0.03;17.00;;;;;12.90;1.00;;;;;;2276705;61;1336;-89
2023/04/09 08:33:56;98775.00;0.33;171.46;0.00;0.00;0.62;;;;;12.90;1.00;;;;;;2273064;61;1782;-91
2023/04/09 08:36:23;66971.00;0.22;116.53;0.00;0.00;0.62;;;;;13.00;1.00;;;;;;2273350;61;1010;-89
2023/04/09 08:38:51;24927.00;0.08;43.80;0.00;0.00;0.62;;;;;13.50;1.00;;;;;;2273198;61;1099;-88
2023/04/09 08:41:20;571443.00;1.90;984.94;40417.00;0.13;70.61;;;;;13.70;1.00;;;;;;2273129;61;1603;-87
2023/04/09 08:43:47;1465156.00;4.88;2577.72;120572.00;0.40;209.07;;;;;14.70;1.00;;;;;;2272941;61;1923;-89
2023/04/09 08:48:45;956611.00;3.19;1655.77;80183.00;0.27;139.35;;;;;16.00;1.00;;;;;;2279452;61;1316;-87
2023/04/09 08:51:18;129374.00;0.43;224.25;0.00;0.00;0.62;;;;;16.50;1.00;;;;;;2276921;61;1271;-90
2023/04/09 08:58:47;525901.00;1.75;906.43;0.00;0.00;0.62;;;;;16.60;1.00;;;;;;2298517;55;3682;-90
2023/04/09 09:03:55;327746.00;1.09;565.61;0.00;0.00;0.62;;;;;16.40;1.00;;;;;;2285346;55;3504;-88
2023/04/09 09:06:25;105864.00;0.35;183.69;0.00;0.00;0.62;;;;;16.40;1.00;;;;;;2275516;61;1573;-89
2023/04/09 09:09:08;161852.00;0.54;280.23;0.00;0.00;0.62;;;;;16.30;1.00;;;;;;2281427;55;3715;-89
2023/04/09 09:11:36;336719.00;1.12;581.03;0.00;0.00;0.62;;;;;16.60;1.00;;;;;;2300333;40;3595;-86
2023/04/09 09:19:02;339150.00;1.13;585.21;0.00;0.00;0.62;;;;;16.10;1.00;;;;;;2280840;55;3684;-87
2023/04/09 09:21:30;402246.00;1.34;693.67;0.00;0.00;0.62;;;;;16.20;1.00;;;;;;2276490;61;1703;-89
2023/04/09 09:26:31;553276.00;1.84;953.61;0.00;0.00;0.62;;;;;16.00;1.00;;;;;;1573295;41;3434;-87
2023/04/09 10:16:58;768203.00;2.56;1325.72;0.00;0.00;0.62;;;;;15.60;1.00;;;;;;2275314;61;1016;-89
2023/04/09 10:21:57;507410.00;1.69;874.58;0.00;0.00;0.62;;;;;16.30;1.00;;;;;;2506477;55;3581;31
2023/04/09 10:32:09;722371.00;2.41;1246.05;0.00;0.00;0.62;;;;;15.60;1.00;;;;;;2506633;55;3548;31
2023/04/09 11:31:42;834708.00;2.78;1441.72;0.00;0.00;0.62;;;;;14.70;1.00;;;;;;2506969;40;3426;31
2023/04/09 11:42:26;208907.00;0.70;361.25;0.00;0.00;0.62;;;;;15.90;1.00;;;;;;2420607;40;3148;31
2023/04/09 11:45:21;762187.00;2.54;1315.26;0.00;0.00;0.62;;;;;15.70;1.00;;;;;;2500140;41;3811;31
2023/04/09 12:11:43;702369.00;2.34;1211.35;0.00;0.00;0.62;;;;;15.50;1.00;;;;;;2274871;61;1007;-91
2023/04/09 21:58:59;745396.00;2.48;1286.05;75695.00;0.25;131.60;;;;;11.30;1.00;;;;;;2279013;61;1015;-88
2023/04/09 22:09:05;1146544.00;3.82;1993.86;0.00;0.00;0.62;;;;;11.00;1.00;;;;;;2333124;40;3465;-88
2023/04/09 22:22:11;575026.00;1.92;991.12;0.00;0.00;0.62;;;;;11.00;1.00;;;;;;1009688;56;3613;-88
2023/04/09 22:25:10;768440.00;2.56;1326.14;0.00;0.00;0.62;;;;;10.90;1.00;;;;;;998851;40;3533;-87
2023/04/09 22:33:41;139418048.00;464.73;109825256.00;58207.00;0.19;101.38;;;;;10.60;1.00;;;;;;546400;56;3081;-90
2023/04/09 22:43:49;856959.00;2.86;1480.65;0.00;0.00;0.62;;;;;10.50;1.00;;;;;;2392914;40;3616;-90
2023/04/09 22:51:22;773302.00;2.58;1334.60;0.00;0.00;0.62;;;;;10.90;1.00;;;;;;2298567;55;3693;-88
